sensor_id;sensor_type;location;lat;lon;timestamp;P1;durP1;ratioP1;P2;durP2;ratioP2
11777;SDS011;5946;51.770;8.548;2023-05-10T00:00:11;55.53;;;29.87;;
11777;SDS011;5946;51.770;8.548;2023-05-10T00:02:38;48.00;;;27.63;;
11777;SDS011;5946;51.770;8.548;2023-05-10T00:05:04;47.87;;;27.57;;
11777;SDS011;5946;51.770;8.548;2023-05-10T00:07:30;44.53;;;27.00;;
11777;SDS011;5946;51.770;8.548;2023-05-10T00:09:56;40.53;;;26.30;;
11777;SDS011;5946;51.770;8.548;2023-05-10T00:12:22;43.23;;;28.67;;
11777;SDS011;5946;51.770;8.548;2023-05-10T00:14:48;46.60;;;28.17;;
11777;SDS011;5946;51.770;8.548;2023-05-10T00:17:14;48.13;;;27.90;;
11777;SDS011;5946;51.770;8.548;2023-05-10T00:19:40;52.00;;;29.23;;
11777;SDS011;5946;51.770;8.548;2023-05-10T00:22:06;43.07;;;26.57;;
11777;SDS011;5946;51.770;8.548;2023-05-10T00:24:32;62.27;;;31.60;;
11777;SDS011;5946;51.770;8.548;2023-05-10T00:26:57;50.27;;;28.37;;
11777;SDS011;5946;51.770;8.548;2023-05-10T00:29:23;48.63;;;28.27;;
11777;SDS011;5946;51.770;8.548;2023-05-10T00:31:49;54.80;;;31.20;;
11777;SDS011;5946;51.770;8.548;2023-05-10T00:34:15;42.47;;;27.67;;
11777;SDS011;5946;51.770;8.548;2023-05-10T00:36:41;62.30;;;31.27;;
11777;SDS011;5946;51.770;8.548;2023-05-10T00:39:07;68.53;;;34.30;;
11777;SDS011;5946;51.770;8.548;2023-05-10T00:41:33;65.60;;;34.20;;
11777;SDS011;5946;51.770;8.548;2023-05-10T00:43:59;62.40;;;32.70;;
11777;SDS011;5946;51.770;8.548;2023-05-10T00:46:26;63.20;;;32.57;;
11777;SDS011;5946;51.770;8.548;2023-05-10T00:48:53;62.23;;;32.17;;
11777;SDS011;5946;51.770;8.548;2023-05-10T00:51:19;45.60;;;28.53;;
11777;SDS011;5946;51.770;8.548;2023-05-10T00:53:45;52.07;;;30.60;;
11777;SDS011;5946;51.770;8.548;2023-05-10T00:56:11;58.20;;;31.30;;
11777;SDS011;5946;51.770;8.548;2023-05-10T00:58:38;64.80;;;32.23;;
11777;SDS011;5946;51.770;8.548;2023-05-10T01:01:04;61.23;;;32.60;;
11777;SDS011;5946;51.770;8.548;2023-05-10T01:03:31;62.73;;;32.87;;
11777;SDS011;5946;51.770;8.548;2023-05-10T01:05:57;47.30;;;29.13;;
11777;SDS011;5946;51.770;8.548;2023-05-10T01:08:23;67.90;;;34.47;;
11777;SDS011;5946;51.770;8.548;2023-05-10T01:10:49;65.60;;;33.13;;
11777;SDS011;5946;51.770;8.548;2023-05-10T01:13:18;77.40;;;36.33;;
11777;SDS011;5946;51.770;8.548;2023-05-10T01:15:48;75.83;;;35.83;;
11777;SDS011;5946;51.770;8.548;2023-05-10T01:18:15;65.13;;;33.60;;
11777;SDS011;5946;51.770;8.548;2023-05-10T01:20:44;67.80;;;33.73;;
11777;SDS011;5946;51.770;8.548;2023-05-10T01:23:17;82.20;;;34.53;;
11777;SDS011;5946;51.770;8.548;2023-05-10T01:26:04;63.50;;;33.17;;
11777;SDS011;5946;51.770;8.548;2023-05-10T01:28:37;72.93;;;35.53;;
11777;SDS011;5946;51.770;8.548;2023-05-10T01:31:18;57.77;;;33.47;;
11777;SDS011;5946;51.770;8.548;2023-05-10T01:33:55;90.27;;;38.10;;
11777;SDS011;5946;51.770;8.548;2023-05-10T01:41:28;82.90;;;38.10;;
11777;SDS011;5946;51.770;8.548;2023-05-10T01:46:32;48.00;;;27.87;;
11777;SDS011;5946;51.770;8.548;2023-05-10T01:49:00;58.03;;;26.30;;
11777;SDS011;5946;51.770;8.548;2023-05-10T01:51:29;46.87;;;22.23;;
11777;SDS011;5946;51.770;8.548;2023-05-10T01:53:58;49.03;;;22.13;;
11777;SDS011;5946;51.770;8.548;2023-05-10T01:56:25;41.57;;;20.77;;
11777;SDS011;5946;51.770;8.548;2023-05-10T01:58:52;42.53;;;20.90;;
11777;SDS011;5946;51.770;8.548;2023-05-10T02:01:19;39.30;;;19.90;;
11777;SDS011;5946;51.770;8.548;2023-05-10T02:03:46;39.53;;;19.87;;
11777;SDS011;5946;51.770;8.548;2023-05-10T02:06:12;35.63;;;18.50;;
11777;SDS011;5946;51.770;8.548;2023-05-10T02:08:39;35.40;;;19.00;;
11777;SDS011;5946;51.770;8.548;2023-05-10T02:11:05;39.67;;;20.07;;
11777;SDS011;5946;51.770;8.548;2023-05-10T02:13:32;37.33;;;20.07;;
11777;SDS011;5946;51.770;8.548;2023-05-10T02:16:00;41.27;;;21.37;;
11777;SDS011;5946;51.770;8.548;2023-05-10T02:18:27;38.17;;;21.40;;
11777;SDS011;5946;51.770;8.548;2023-05-10T02:20:53;40.27;;;22.23;;
11777;SDS011;5946;51.770;8.548;2023-05-10T02:23:20;41.13;;;23.53;;
11777;SDS011;5946;51.770;8.548;2023-05-10T02:25:46;49.93;;;24.73;;
11777;SDS011;5946;51.770;8.548;2023-05-10T02:28:13;40.97;;;23.83;;
11777;SDS011;5946;51.770;8.548;2023-05-10T02:30:40;39.30;;;23.87;;
11777;SDS011;5946;51.770;8.548;2023-05-10T02:33:06;41.80;;;24.63;;
11777;SDS011;5946;51.770;8.548;2023-05-10T02:35:32;48.70;;;26.77;;
11777;SDS011;5946;51.770;8.548;2023-05-10T02:37:59;47.53;;;27.00;;
11777;SDS011;5946;51.770;8.548;2023-05-10T02:40:25;43.33;;;25.27;;
11777;SDS011;5946;51.770;8.548;2023-05-10T02:42:52;42.37;;;25.67;;
11777;SDS011;5946;51.770;8.548;2023-05-10T02:45:20;47.80;;;26.73;;
11777;SDS011;5946;51.770;8.548;2023-05-10T02:47:47;44.43;;;25.27;;
11777;SDS011;5946;51.770;8.548;2023-05-10T02:50:13;40.00;;;24.70;;
11777;SDS011;5946;51.770;8.548;2023-05-10T02:52:44;42.03;;;24.23;;
11777;SDS011;5946;51.770;8.548;2023-05-10T02:55:12;38.57;;;23.73;;
11777;SDS011;5946;51.770;8.548;2023-05-10T02:57:41;39.50;;;23.30;;
11777;SDS011;5946;51.770;8.548;2023-05-10T03:00:09;37.07;;;22.47;;
11777;SDS011;5946;51.770;8.548;2023-05-10T03:02:35;36.17;;;22.57;;
11777;SDS011;5946;51.770;8.548;2023-05-10T03:05:01;33.30;;;21.90;;
11777;SDS011;5946;51.770;8.548;2023-05-10T03:07:28;34.00;;;20.53;;
11777;SDS011;5946;51.770;8.548;2023-05-10T03:09:54;33.53;;;20.60;;
11777;SDS011;5946;51.770;8.548;2023-05-10T03:17:47;30.00;;;19.63;;
11777;SDS011;5946;51.770;8.548;2023-05-10T03:20:28;30.90;;;20.43;;
11777;SDS011;5946;51.770;8.548;2023-05-10T03:22:55;30.40;;;19.13;;
11777;SDS011;5946;51.770;8.548;2023-05-10T03:25:23;26.77;;;18.43;;
11777;SDS011;5946;51.770;8.548;2023-05-10T03:27:49;26.43;;;17.50;;
11777;SDS011;5946;51.770;8.548;2023-05-10T03:30:15;23.43;;;16.50;;
11777;SDS011;5946;51.770;8.548;2023-05-10T03:32:42;19.37;;;14.67;;
11777;SDS011;5946;51.770;8.548;2023-05-10T03:35:08;20.07;;;14.23;;
11777;SDS011;5946;51.770;8.548;2023-05-10T03:37:35;19.17;;;14.00;;
11777;SDS011;5946;51.770;8.548;2023-05-10T03:40:01;19.57;;;12.87;;
11777;SDS011;5946;51.770;8.548;2023-05-10T03:42:27;18.27;;;12.07;;
11777;SDS011;5946;51.770;8.548;2023-05-10T03:44:53;18.40;;;12.07;;
11777;SDS011;5946;51.770;8.548;2023-05-10T03:47:19;17.57;;;11.17;;
11777;SDS011;5946;51.770;8.548;2023-05-10T03:49:45;18.47;;;10.70;;
11777;SDS011;5946;51.770;8.548;2023-05-10T03:52:11;16.97;;;10.77;;
11777;SDS011;5946;51.770;8.548;2023-05-10T03:54:37;14.63;;;9.63;;
11777;SDS011;5946;51.770;8.548;2023-05-10T03:57:03;15.70;;;10.17;;
11777;SDS011;5946;51.770;8.548;2023-05-10T03:59:29;19.37;;;11.07;;
11777;SDS011;5946;51.770;8.548;2023-05-10T04:01:55;17.13;;;10.97;;
11777;SDS011;5946;51.770;8.548;2023-05-10T04:04:21;17.63;;;11.83;;
11777;SDS011;5946;51.770;8.548;2023-05-10T04:06:48;17.20;;;11.63;;
11777;SDS011;5946;51.770;8.548;2023-05-10T04:09:14;20.43;;;13.40;;
11777;SDS011;5946;51.770;8.548;2023-05-10T04:11:41;18.60;;;14.10;;
11777;SDS011;5946;51.770;8.548;2023-05-10T04:14:07;20.63;;;13.03;;
11777;SDS011;5946;51.770;8.548;2023-05-10T04:16:33;19.60;;;12.80;;
11777;SDS011;5946;51.770;8.548;2023-05-10T04:18:59;27.13;;;14.33;;
11777;SDS011;5946;51.770;8.548;2023-05-10T04:21:25;13.97;;;10.43;;
11777;SDS011;5946;51.770;8.548;2023-05-10T04:23:51;9.53;;;8.03;;
11777;SDS011;5946;51.770;8.548;2023-05-10T04:26:17;11.27;;;8.40;;
11777;SDS011;5946;51.770;8.548;2023-05-10T04:28:42;9.63;;;7.37;;
11777;SDS011;5946;51.770;8.548;2023-05-10T04:31:09;11.07;;;7.20;;
11777;SDS011;5946;51.770;8.548;2023-05-10T04:33:35;9.07;;;6.30;;
11777;SDS011;5946;51.770;8.548;2023-05-10T04:36:02;9.10;;;6.07;;
11777;SDS011;5946;51.770;8.548;2023-05-10T04:38:28;9.93;;;6.40;;
11777;SDS011;5946;51.770;8.548;2023-05-10T04:40:54;7.43;;;5.97;;
11777;SDS011;5946;51.770;8.548;2023-05-10T04:43:20;6.97;;;5.90;;
11777;SDS011;5946;51.770;8.548;2023-05-10T04:45:46;6.50;;;5.80;;
11777;SDS011;5946;51.770;8.548;2023-05-10T04:48:12;8.13;;;6.90;;
11777;SDS011;5946;51.770;8.548;2023-05-10T04:50:38;11.07;;;6.80;;
11777;SDS011;5946;51.770;8.548;2023-05-10T04:53:05;10.33;;;7.20;;
11777;SDS011;5946;51.770;8.548;2023-05-10T04:55:31;11.07;;;7.50;;
11777;SDS011;5946;51.770;8.548;2023-05-10T04:57:57;9.87;;;7.40;;
11777;SDS011;5946;51.770;8.548;2023-05-10T05:00:23;10.73;;;8.23;;
11777;SDS011;5946;51.770;8.548;2023-05-10T05:02:49;12.10;;;9.07;;
11777;SDS011;5946;51.770;8.548;2023-05-10T05:05:16;17.03;;;10.57;;
11777;SDS011;5946;51.770;8.548;2023-05-10T05:07:42;14.27;;;9.93;;
11777;SDS011;5946;51.770;8.548;2023-05-10T05:10:08;21.23;;;11.07;;
11777;SDS011;5946;51.770;8.548;2023-05-10T05:12:34;16.93;;;11.00;;
11777;SDS011;5946;51.770;8.548;2023-05-10T05:15:01;16.53;;;11.17;;
11777;SDS011;5946;51.770;8.548;2023-05-10T05:17:27;16.97;;;11.93;;
11777;SDS011;5946;51.770;8.548;2023-05-10T05:19:53;17.87;;;11.13;;
11777;SDS011;5946;51.770;8.548;2023-05-10T05:22:19;15.43;;;10.60;;
11777;SDS011;5946;51.770;8.548;2023-05-10T05:24:52;12.77;;;9.73;;
11777;SDS011;5946;51.770;8.548;2023-05-10T05:27:18;15.23;;;9.30;;
11777;SDS011;5946;51.770;8.548;2023-05-10T05:29:45;11.73;;;8.60;;
11777;SDS011;5946;51.770;8.548;2023-05-10T05:32:11;10.50;;;8.43;;
11777;SDS011;5946;51.770;8.548;2023-05-10T05:34:37;13.97;;;8.23;;
11777;SDS011;5946;51.770;8.548;2023-05-10T05:37:04;10.17;;;7.80;;
11777;SDS011;5946;51.770;8.548;2023-05-10T05:39:29;9.90;;;7.10;;
11777;SDS011;5946;51.770;8.548;2023-05-10T05:41:55;9.77;;;7.53;;
11777;SDS011;5946;51.770;8.548;2023-05-10T05:44:21;8.10;;;6.80;;
11777;SDS011;5946;51.770;8.548;2023-05-10T05:46:47;9.67;;;6.67;;
11777;SDS011;5946;51.770;8.548;2023-05-10T05:49:13;9.87;;;6.80;;
11777;SDS011;5946;51.770;8.548;2023-05-10T05:51:39;8.10;;;6.47;;
11777;SDS011;5946;51.770;8.548;2023-05-10T05:54:05;8.77;;;6.20;;
11777;SDS011;5946;51.770;8.548;2023-05-10T05:56:31;12.93;;;6.87;;
11777;SDS011;5946;51.770;8.548;2023-05-10T05:58:57;12.57;;;6.03;;
11777;SDS011;5946;51.770;8.548;2023-05-10T06:01:23;9.67;;;5.57;;
11777;SDS011;5946;51.770;8.548;2023-05-10T06:03:49;8.33;;;5.73;;
11777;SDS011;5946;51.770;8.548;2023-05-10T06:06:15;8.10;;;5.23;;
11777;SDS011;5946;51.770;8.548;2023-05-10T06:08:41;8.83;;;5.27;;
11777;SDS011;5946;51.770;8.548;2023-05-10T06:11:06;6.67;;;5.10;;
11777;SDS011;5946;51.770;8.548;2023-05-10T06:13:32;10.53;;;4.83;;
11777;SDS011;5946;51.770;8.548;2023-05-10T06:16:00;8.33;;;4.73;;
11777;SDS011;5946;51.770;8.548;2023-05-10T06:18:26;7.27;;;4.47;;
11777;SDS011;5946;51.770;8.548;2023-05-10T06:20:52;5.07;;;4.37;;
11777;SDS011;5946;51.770;8.548;2023-05-10T06:23:18;9.23;;;5.20;;
11777;SDS011;5946;51.770;8.548;2023-05-10T06:25:44;6.17;;;5.00;;
11777;SDS011;5946;51.770;8.548;2023-05-10T06:28:10;9.10;;;6.23;;
11777;SDS011;5946;51.770;8.548;2023-05-10T06:30:37;9.10;;;6.13;;
11777;SDS011;5946;51.770;8.548;2023-05-10T06:33:03;9.43;;;6.87;;
11777;SDS011;5946;51.770;8.548;2023-05-10T06:35:29;11.00;;;8.33;;
11777;SDS011;5946;51.770;8.548;2023-05-10T06:37:58;13.87;;;7.93;;
11777;SDS011;5946;51.770;8.548;2023-05-10T06:40:24;12.27;;;8.27;;
11777;SDS011;5946;51.770;8.548;2023-05-10T06:42:50;14.20;;;8.47;;
11777;SDS011;5946;51.770;8.548;2023-05-10T06:45:16;12.90;;;9.07;;
11777;SDS011;5946;51.770;8.548;2023-05-10T06:47:42;12.60;;;9.70;;
11777;SDS011;5946;51.770;8.548;2023-05-10T06:50:09;14.20;;;9.97;;
11777;SDS011;5946;51.770;8.548;2023-05-10T06:52:36;14.30;;;9.67;;
11777;SDS011;5946;51.770;8.548;2023-05-10T06:55:02;12.70;;;9.60;;
11777;SDS011;5946;51.770;8.548;2023-05-10T06:57:28;11.97;;;10.30;;
11777;SDS011;5946;51.770;8.548;2023-05-10T06:59:54;14.57;;;10.07;;
11777;SDS011;5946;51.770;8.548;2023-05-10T07:02:21;13.10;;;10.20;;
11777;SDS011;5946;51.770;8.548;2023-05-10T07:04:47;15.10;;;11.00;;
11777;SDS011;5946;51.770;8.548;2023-05-10T07:07:13;13.07;;;10.37;;
11777;SDS011;5946;51.770;8.548;2023-05-10T07:09:39;10.97;;;9.33;;
11777;SDS011;5946;51.770;8.548;2023-05-10T07:12:05;12.10;;;9.33;;
11777;SDS011;5946;51.770;8.548;2023-05-10T07:14:31;11.80;;;9.37;;
11777;SDS011;5946;51.770;8.548;2023-05-10T07:16:57;13.10;;;10.03;;
11777;SDS011;5946;51.770;8.548;2023-05-10T07:19:23;12.10;;;9.23;;
11777;SDS011;5946;51.770;8.548;2023-05-10T07:21:49;11.90;;;9.07;;
11777;SDS011;5946;51.770;8.548;2023-05-10T07:24:15;11.50;;;8.80;;
11777;SDS011;5946;51.770;8.548;2023-05-10T07:26:41;12.10;;;8.57;;
11777;SDS011;5946;51.770;8.548;2023-05-10T07:29:07;11.40;;;9.00;;
11777;SDS011;5946;51.770;8.548;2023-05-10T07:31:33;12.33;;;8.77;;
11777;SDS011;5946;51.770;8.548;2023-05-10T07:33:59;11.47;;;8.90;;
11777;SDS011;5946;51.770;8.548;2023-05-10T07:36:25;15.03;;;10.90;;
11777;SDS011;5946;51.770;8.548;2023-05-10T07:38:52;13.50;;;10.77;;
11777;SDS011;5946;51.770;8.548;2023-05-10T07:41:18;13.67;;;10.37;;
11777;SDS011;5946;51.770;8.548;2023-05-10T07:43:46;14.13;;;10.10;;
11777;SDS011;5946;51.770;8.548;2023-05-10T07:46:11;16.47;;;10.80;;
11777;SDS011;5946;51.770;8.548;2023-05-10T07:48:37;15.73;;;11.33;;
11777;SDS011;5946;51.770;8.548;2023-05-10T07:51:03;19.17;;;11.80;;
11777;SDS011;5946;51.770;8.548;2023-05-10T07:53:31;18.50;;;13.20;;
11777;SDS011;5946;51.770;8.548;2023-05-10T07:55:57;19.43;;;13.97;;
11777;SDS011;5946;51.770;8.548;2023-05-10T07:58:24;23.33;;;15.23;;
11777;SDS011;5946;51.770;8.548;2023-05-10T08:00:50;21.13;;;15.40;;
11777;SDS011;5946;51.770;8.548;2023-05-10T08:03:16;25.97;;;17.77;;
11777;SDS011;5946;51.770;8.548;2023-05-10T08:05:42;29.87;;;20.07;;
11777;SDS011;5946;51.770;8.548;2023-05-10T08:08:08;33.40;;;21.00;;
11777;SDS011;5946;51.770;8.548;2023-05-10T08:10:34;41.60;;;23.73;;
11777;SDS011;5946;51.770;8.548;2023-05-10T08:13:00;42.67;;;25.80;;
11777;SDS011;5946;51.770;8.548;2023-05-10T08:15:26;44.87;;;26.27;;
11777;SDS011;5946;51.770;8.548;2023-05-10T08:17:52;41.57;;;26.60;;
11777;SDS011;5946;51.770;8.548;2023-05-10T08:20:18;43.73;;;27.00;;
11777;SDS011;5946;51.770;8.548;2023-05-10T08:22:47;46.67;;;27.77;;
11777;SDS011;5946;51.770;8.548;2023-05-10T08:25:13;54.03;;;25.00;;
11777;SDS011;5946;51.770;8.548;2023-05-10T08:27:39;41.80;;;26.33;;
11777;SDS011;5946;51.770;8.548;2023-05-10T08:30:05;38.57;;;24.07;;
11777;SDS011;5946;51.770;8.548;2023-05-10T08:32:31;37.63;;;23.03;;
11777;SDS011;5946;51.770;8.548;2023-05-10T08:34:57;45.27;;;24.63;;
11777;SDS011;5946;51.770;8.548;2023-05-10T08:37:23;41.73;;;24.57;;
11777;SDS011;5946;51.770;8.548;2023-05-10T08:39:49;42.10;;;26.03;;
11777;SDS011;5946;51.770;8.548;2023-05-10T08:42:16;44.80;;;26.67;;
11777;SDS011;5946;51.770;8.548;2023-05-10T08:44:45;55.53;;;28.67;;
11777;SDS011;5946;51.770;8.548;2023-05-10T08:47:15;49.67;;;28.73;;
11777;SDS011;5946;51.770;8.548;2023-05-10T08:49:42;53.03;;;28.70;;
11777;SDS011;5946;51.770;8.548;2023-05-10T08:52:08;55.83;;;30.03;;
11777;SDS011;5946;51.770;8.548;2023-05-10T08:54:36;56.87;;;29.67;;
11777;SDS011;5946;51.770;8.548;2023-05-10T08:57:02;51.90;;;29.90;;
11777;SDS011;5946;51.770;8.548;2023-05-10T08:59:28;49.27;;;29.63;;
11777;SDS011;5946;51.770;8.548;2023-05-10T09:01:55;47.57;;;28.57;;
11777;SDS011;5946;51.770;8.548;2023-05-10T09:04:23;47.50;;;29.53;;
11777;SDS011;5946;51.770;8.548;2023-05-10T09:06:50;44.93;;;29.13;;
11777;SDS011;5946;51.770;8.548;2023-05-10T09:09:16;41.57;;;27.40;;
11777;SDS011;5946;51.770;8.548;2023-05-10T09:11:43;44.23;;;26.93;;
11777;SDS011;5946;51.770;8.548;2023-05-10T09:14:09;40.73;;;26.30;;
11777;SDS011;5946;51.770;8.548;2023-05-10T09:16:36;34.70;;;26.00;;
11777;SDS011;5946;51.770;8.548;2023-05-10T09:19:02;36.27;;;24.90;;
11777;SDS011;5946;51.770;8.548;2023-05-10T09:21:28;30.70;;;23.67;;
11777;SDS011;5946;51.770;8.548;2023-05-10T09:23:55;33.17;;;23.60;;
11777;SDS011;5946;51.770;8.548;2023-05-10T09:26:22;28.40;;;22.20;;
11777;SDS011;5946;51.770;8.548;2023-05-10T09:28:51;25.10;;;20.93;;
11777;SDS011;5946;51.770;8.548;2023-05-10T09:31:18;28.77;;;21.80;;
11777;SDS011;5946;51.770;8.548;2023-05-10T09:33:45;28.90;;;22.27;;
11777;SDS011;5946;51.770;8.548;2023-05-10T09:36:12;27.00;;;21.30;;
11777;SDS011;5946;51.770;8.548;2023-05-10T09:38:47;27.50;;;20.67;;
11777;SDS011;5946;51.770;8.548;2023-05-10T09:41:23;30.00;;;22.13;;
11777;SDS011;5946;51.770;8.548;2023-05-10T09:43:50;30.20;;;21.63;;
11777;SDS011;5946;51.770;8.548;2023-05-10T09:46:16;28.13;;;20.83;;
11777;SDS011;5946;51.770;8.548;2023-05-10T09:48:43;29.53;;;21.50;;
11777;SDS011;5946;51.770;8.548;2023-05-10T09:51:09;31.27;;;21.90;;
11777;SDS011;5946;51.770;8.548;2023-05-10T09:53:36;27.73;;;19.53;;
11777;SDS011;5946;51.770;8.548;2023-05-10T09:56:02;23.93;;;18.23;;
11777;SDS011;5946;51.770;8.548;2023-05-10T09:58:28;20.80;;;17.23;;
11777;SDS011;5946;51.770;8.548;2023-05-10T10:00:54;23.90;;;18.47;;
11777;SDS011;5946;51.770;8.548;2023-05-10T10:03:21;24.50;;;18.93;;
11777;SDS011;5946;51.770;8.548;2023-05-10T10:05:47;24.00;;;17.47;;
11777;SDS011;5946;51.770;8.548;2023-05-10T10:08:14;22.67;;;17.87;;
11777;SDS011;5946;51.770;8.548;2023-05-10T10:10:40;22.77;;;17.57;;
11777;SDS011;5946;51.770;8.548;2023-05-10T10:13:09;25.90;;;19.00;;
11777;SDS011;5946;51.770;8.548;2023-05-10T10:15:35;22.67;;;17.60;;
11777;SDS011;5946;51.770;8.548;2023-05-10T10:18:01;23.87;;;19.10;;
11777;SDS011;5946;51.770;8.548;2023-05-10T10:20:28;23.83;;;18.20;;
11777;SDS011;5946;51.770;8.548;2023-05-10T10:22:55;23.77;;;18.93;;
11777;SDS011;5946;51.770;8.548;2023-05-10T10:25:21;24.07;;;19.20;;
11777;SDS011;5946;51.770;8.548;2023-05-10T10:35:36;20.60;;;15.90;;
11777;SDS011;5946;51.770;8.548;2023-05-10T10:38:02;19.70;;;16.30;;
11777;SDS011;5946;51.770;8.548;2023-05-10T10:40:30;20.97;;;15.93;;
11777;SDS011;5946;51.770;8.548;2023-05-10T10:42:56;22.23;;;17.10;;
11777;SDS011;5946;51.770;8.548;2023-05-10T10:45:23;21.70;;;16.70;;
11777;SDS011;5946;51.770;8.548;2023-05-10T10:47:53;20.77;;;17.10;;
11777;SDS011;5946;51.770;8.548;2023-05-10T10:50:19;22.53;;;16.97;;
11777;SDS011;5946;51.770;8.548;2023-05-10T10:52:45;20.70;;;16.63;;
11777;SDS011;5946;51.770;8.548;2023-05-10T10:55:18;19.10;;;15.77;;
11777;SDS011;5946;51.770;8.548;2023-05-10T10:57:48;20.43;;;15.47;;
11777;SDS011;5946;51.770;8.548;2023-05-10T11:00:18;18.63;;;15.10;;
11777;SDS011;5946;51.770;8.548;2023-05-10T11:02:45;22.30;;;16.13;;
11777;SDS011;5946;51.770;8.548;2023-05-10T11:05:33;25.33;;;16.47;;
11777;SDS011;5946;51.770;8.548;2023-05-10T11:10:40;19.10;;;14.50;;
11777;SDS011;5946;51.770;8.548;2023-05-10T11:13:07;16.87;;;14.53;;
11777;SDS011;5946;51.770;8.548;2023-05-10T11:15:36;21.17;;;17.20;;
11777;SDS011;5946;51.770;8.548;2023-05-10T11:18:16;20.35;;;17.25;;
11777;SDS011;5946;51.770;8.548;2023-05-10T11:20:43;22.50;;;18.50;;
11777;SDS011;5946;51.770;8.548;2023-05-10T11:23:13;19.73;;;16.48;;
11777;SDS011;5946;51.770;8.548;2023-05-10T11:25:41;21.10;;;16.17;;
11777;SDS011;5946;51.770;8.548;2023-05-10T11:28:08;21.88;;;16.67;;
11777;SDS011;5946;51.770;8.548;2023-05-10T11:30:34;18.30;;;15.97;;
11777;SDS011;5946;51.770;8.548;2023-05-10T11:33:01;17.92;;;15.38;;
11777;SDS011;5946;51.770;8.548;2023-05-10T11:35:27;21.00;;;16.52;;
11777;SDS011;5946;51.770;8.548;2023-05-10T11:37:53;18.27;;;16.38;;
11777;SDS011;5946;51.770;8.548;2023-05-10T11:40:21;16.45;;;13.43;;
11777;SDS011;5946;51.770;8.548;2023-05-10T11:42:49;17.80;;;13.82;;
11777;SDS011;5946;51.770;8.548;2023-05-10T11:45:15;16.03;;;12.27;;
11777;SDS011;5946;51.770;8.548;2023-05-10T11:47:41;10.97;;;8.70;;
11777;SDS011;5946;51.770;8.548;2023-05-10T11:50:08;12.70;;;8.53;;
11777;SDS011;5946;51.770;8.548;2023-05-10T11:52:37;13.80;;;7.37;;
11777;SDS011;5946;51.770;8.548;2023-05-10T11:55:03;13.93;;;9.50;;
11777;SDS011;5946;51.770;8.548;2023-05-10T11:57:30;11.37;;;7.93;;
11777;SDS011;5946;51.770;8.548;2023-05-10T11:59:56;9.30;;;7.30;;
11777;SDS011;5946;51.770;8.548;2023-05-10T12:02:22;10.10;;;7.30;;
11777;SDS011;5946;51.770;8.548;2023-05-10T12:04:49;8.60;;;6.13;;
11777;SDS011;5946;51.770;8.548;2023-05-10T12:07:15;5.43;;;4.60;;
11777;SDS011;5946;51.770;8.548;2023-05-10T12:09:44;6.67;;;4.73;;
11777;SDS011;5946;51.770;8.548;2023-05-10T12:12:15;6.90;;;4.60;;
11777;SDS011;5946;51.770;8.548;2023-05-10T12:14:41;4.97;;;4.17;;
11777;SDS011;5946;51.770;8.548;2023-05-10T12:17:11;5.37;;;4.00;;
11777;SDS011;5946;51.770;8.548;2023-05-10T12:19:38;6.23;;;4.43;;
11777;SDS011;5946;51.770;8.548;2023-05-10T12:22:04;6.00;;;4.60;;
11777;SDS011;5946;51.770;8.548;2023-05-10T12:24:33;8.20;;;4.00;;
11777;SDS011;5946;51.770;8.548;2023-05-10T12:26:59;5.47;;;4.10;;
11777;SDS011;5946;51.770;8.548;2023-05-10T12:29:25;5.43;;;3.80;;
11777;SDS011;5946;51.770;8.548;2023-05-10T12:31:55;4.07;;;3.67;;
11777;SDS011;5946;51.770;8.548;2023-05-10T12:34:31;4.20;;;3.80;;
11777;SDS011;5946;51.770;8.548;2023-05-10T12:36:57;7.10;;;6.07;;
11777;SDS011;5946;51.770;8.548;2023-05-10T12:39:23;8.20;;;6.80;;
11777;SDS011;5946;51.770;8.548;2023-05-10T12:41:50;8.07;;;6.40;;
11777;SDS011;5946;51.770;8.548;2023-05-10T12:44:16;14.80;;;10.73;;
11777;SDS011;5946;51.770;8.548;2023-05-10T12:46:42;15.43;;;11.67;;
11777;SDS011;5946;51.770;8.548;2023-05-10T12:49:08;14.30;;;11.95;;
11777;SDS011;5946;51.770;8.548;2023-05-10T12:51:34;15.43;;;11.63;;
11777;SDS011;5946;51.770;8.548;2023-05-10T12:54:03;16.47;;;12.80;;
11777;SDS011;5946;51.770;8.548;2023-05-10T12:56:29;14.00;;;12.33;;
11777;SDS011;5946;51.770;8.548;2023-05-10T12:58:58;13.90;;;11.00;;
11777;SDS011;5946;51.770;8.548;2023-05-10T13:01:24;14.27;;;10.65;;
11777;SDS011;5946;51.770;8.548;2023-05-10T13:03:50;11.90;;;10.63;;
11777;SDS011;5946;51.770;8.548;2023-05-10T13:06:16;17.40;;;12.35;;
11777;SDS011;5946;51.770;8.548;2023-05-10T13:08:42;14.55;;;11.30;;
11777;SDS011;5946;51.770;8.548;2023-05-10T13:11:08;15.10;;;11.50;;
11777;SDS011;5946;51.770;8.548;2023-05-10T13:13:34;13.43;;;11.75;;
11777;SDS011;5946;51.770;8.548;2023-05-10T13:16:00;14.38;;;9.80;;
11777;SDS011;5946;51.770;8.548;2023-05-10T13:18:26;10.57;;;8.88;;
11777;SDS011;5946;51.770;8.548;2023-05-10T13:20:53;11.80;;;8.80;;
11777;SDS011;5946;51.770;8.548;2023-05-10T13:23:19;10.50;;;8.57;;
11777;SDS011;5946;51.770;8.548;2023-05-10T13:25:45;8.65;;;7.00;;
11777;SDS011;5946;51.770;8.548;2023-05-10T13:28:11;7.35;;;6.20;;
11777;SDS011;5946;51.770;8.548;2023-05-10T13:30:37;5.43;;;4.93;;
11777;SDS011;5946;51.770;8.548;2023-05-10T13:33:03;7.93;;;6.15;;
11777;SDS011;5946;51.770;8.548;2023-05-10T13:35:30;10.37;;;7.97;;
11777;SDS011;5946;51.770;8.548;2023-05-10T13:37:56;11.00;;;9.33;;
11777;SDS011;5946;51.770;8.548;2023-05-10T13:40:22;13.30;;;10.63;;
11777;SDS011;5946;51.770;8.548;2023-05-10T13:42:48;16.23;;;11.27;;
11777;SDS011;5946;51.770;8.548;2023-05-10T13:45:14;19.73;;;12.80;;
11777;SDS011;5946;51.770;8.548;2023-05-10T13:47:40;19.77;;;13.30;;
11777;SDS011;5946;51.770;8.548;2023-05-10T13:50:07;18.77;;;13.47;;
11777;SDS011;5946;51.770;8.548;2023-05-10T13:52:33;23.97;;;15.13;;
11777;SDS011;5946;51.770;8.548;2023-05-10T13:54:59;23.10;;;15.30;;
11777;SDS011;5946;51.770;8.548;2023-05-10T13:57:25;23.03;;;16.03;;
11777;SDS011;5946;51.770;8.548;2023-05-10T13:59:51;25.93;;;18.03;;
11777;SDS011;5946;51.770;8.548;2023-05-10T14:02:17;29.60;;;18.47;;
11777;SDS011;5946;51.770;8.548;2023-05-10T14:04:43;30.70;;;18.90;;
11777;SDS011;5946;51.770;8.548;2023-05-10T14:07:09;29.53;;;19.93;;
11777;SDS011;5946;51.770;8.548;2023-05-10T14:09:35;31.23;;;18.87;;
11777;SDS011;5946;51.770;8.548;2023-05-10T14:12:01;35.83;;;20.27;;
11777;SDS011;5946;51.770;8.548;2023-05-10T14:14:27;27.47;;;18.07;;
11777;SDS011;5946;51.770;8.548;2023-05-10T14:16:54;31.93;;;20.20;;
11777;SDS011;5946;51.770;8.548;2023-05-10T14:19:20;31.67;;;18.07;;
11777;SDS011;5946;51.770;8.548;2023-05-10T14:21:46;37.70;;;19.43;;
11777;SDS011;5946;51.770;8.548;2023-05-10T14:24:12;35.00;;;19.80;;
11777;SDS011;5946;51.770;8.548;2023-05-10T14:26:38;33.90;;;20.47;;
11777;SDS011;5946;51.770;8.548;2023-05-10T14:29:04;33.97;;;20.00;;
11777;SDS011;5946;51.770;8.548;2023-05-10T14:31:30;36.37;;;19.97;;
11777;SDS011;5946;51.770;8.548;2023-05-10T14:33:56;32.03;;;19.30;;
11777;SDS011;5946;51.770;8.548;2023-05-10T14:36:22;31.73;;;17.63;;
11777;SDS011;5946;51.770;8.548;2023-05-10T14:38:48;32.13;;;18.90;;
11777;SDS011;5946;51.770;8.548;2023-05-10T14:41:15;33.33;;;19.60;;
11777;SDS011;5946;51.770;8.548;2023-05-10T14:43:42;31.27;;;18.77;;
11777;SDS011;5946;51.770;8.548;2023-05-10T14:46:08;30.73;;;18.30;;
11777;SDS011;5946;51.770;8.548;2023-05-10T14:48:34;40.27;;;21.13;;
11777;SDS011;5946;51.770;8.548;2023-05-10T14:51:00;31.77;;;18.60;;
11777;SDS011;5946;51.770;8.548;2023-05-10T14:53:26;35.77;;;18.77;;
11777;SDS011;5946;51.770;8.548;2023-05-10T14:55:52;23.90;;;15.87;;
11777;SDS011;5946;51.770;8.548;2023-05-10T14:58:18;27.30;;;17.03;;
11777;SDS011;5946;51.770;8.548;2023-05-10T15:00:44;22.53;;;15.63;;